Greenville, WI

10:42 AM CDT on August 31, 2015 (GMT -0500)
East End, School Road | | Change Station
CLOSE
Current Station
Personal Weather Station
Location: Greenville, WI
Elevation: 880 ft
Nearby Weather Stations

Elev 880 ft 44.29 °N, 88.52 °W | Updated 5 seconds ago

Overcast
Overcast
69.4 °F
Feels Like 69.4 °F
N
0.0
Wind Variable Wind from WSW
Gusts 1.0 mph

Today
High -- | Low -- °F
--% Chance of Precip.
Yesterday
High -- | Low -- °F
Precip. -- in
6:15 AM 7:32 PM
Waning Gibbous, 95% visible
Pressure 30.03 in
Visibility 7.0 miles
Clouds Mostly Cloudy 500 ft
Overcast 1600 ft
Dew Point 66 °F
Humidity 88%
Rainfall 0.00 in
Snow Depth Not available.
UV 1 out of 12
Pollen 10.10 out of 12
Air Quality Not available.
Flu Activity Not available.
METAR KATW 311445Z 21007KT 7SM BKN005 OVC016 19/19 A3003
Pressure 30.03 in
Visibility 7.0 miles
Clouds Mostly Cloudy 500 ft
Overcast 1600 ft
Dew Point 66 °F
Humidity 88%
Rainfall 0.00 in
Snow Depth Not available.
UV 1 out of 12
Pollen 10.10 out of 12
Air Quality Not available.
Flu Activity Not available.
METAR KATW 311445Z 21007KT 7SM BKN005 OVC016 19/19 A3003

10-Day Weather Forecast

×

Almanac

Astronomy

Aug. 31, 2015 Rise Set
Actual Time
Civil Twilight
Nautical Twilight
Astronomical Twilight
Moon
Length of Visible Light
Length of Day
Tomorrow will be .
, % of the Moon is Illuminated

Today's Extremes

State Highs State Lows

Community

WunderPhotos

Upload Photos

1,851,282 photos uploaded!

WunderBlogs® & News

Nearby

Air Quality

  Air Quality AQ Index Pollutant
Not available.

Snow Depth

Station Depth Elevation

Earthquake Activity

City Distance Mag. Time & Date
Minimum magnitude displayed is 2.5.

Coastal Water Temperatures

Place Temperature

Stations

Nearby Weather Stations

Station Location Temp. Windchill Dew Point Humidity Wind Precip. Elev Updated Type